Flight Information

DEPARTURE
OXNARD, CA
Elevation:
44
Runways:
7/25 - 5953x100 - ASPH-F
Active PE Departure:
25
Current PE ATIS:
X
Altimeter:
29.93
Remarks:
ATIS:
118.05 805-985-1758
Ground:
121.9
Tower:
134.95
DESTINATION
,
Elevation:
TPA:
1000 (est.)


6827.9 NM73° True-14° Var58° HDG

Flight Plan:
(click to file on line)

1. Type
2. Aircraft Identification
3. Aircraft Type / Special Equipment
4. True Airspeed
kts
5. Departure Airport
(ICAO code)
6. Arriving Airport
(ICAO code)
7. Cruising Altitude
ft
8. Alternate Airport
(ICAO code)
9. Route of Flight
10. Remarks


00:00:00 Departure ATIS: Destination ATIS:

Clearance Limit:
Route:
Altitude: Expect in minutes
Frequency:
Transponder: (7500 Hijack / 7600 Lost Comms / 7700 Emergency)


KOXR 051651Z 23004KT 7SM CLR 23/17 A2993 RMK AO2 SLP134 T02280167 $
Time: 2020-07-05T16:51:00Z
1593970309
Winds: 230 @ 4 kts
Visibility: 7.0 sm
Clouds (AGL): CLR
Temperature: 22.8 C
Dew Point: 16.7 C
Pressure: 29.929134 in Hgbr


Notes:

Data extracted from FAA Digital Chart Supplement. Effective: 0901Z Thursday, May 21, 2020 to 0901Z Thursday, Jul 16, 2020
Current ATIS data is provided courtisy of PilotEdge.